Rochester, Illinois
Current Conditions -  °F | °C
As of 8:33 AM on Sunday 25 Jan 2015 (Local Time) from KSPI Reporting Station
Light Rain Light Rain  
Wind Chill:   Ceiling: 3000
Heat Index:   Visibility: 6mi
Dew Point:   Wind: 6mph
Humidity: 93%   Direction: 50°NE
Pressure: 29.6"   Gusts: NA
Location:  39.75°N, 89.53°W
Report Text: KSPI 251433Z 05005KT 6SM -RA BR OVC030 05/04 A2960 RMK AO2 P0002 T00500039
Loading
Personal Weather Stations






























Interactive Weather Map New forecast layout! Learn more

10-Day Weather Forecast

Advertisements
Track Severe Weather on mobile